createdAt,value
2022-09-29T00:01:02.488Z,7.37
2022-09-29T00:03:05.274Z,8.10
2022-09-29T00:05:07.887Z,7.43
2022-09-29T00:07:09.897Z,7.80
2022-09-29T00:09:11.878Z,7.60
2022-09-29T00:11:17.153Z,7.70
2022-09-29T00:13:19.319Z,7.47
2022-09-29T00:15:21.380Z,8.40
2022-09-29T00:17:23.346Z,8.50
2022-09-29T00:19:25.638Z,9.00
2022-09-29T00:21:27.563Z,8.60
2022-09-29T00:23:30.685Z,7.73
2022-09-29T00:25:32.804Z,7.83
2022-09-29T00:27:34.883Z,7.20
2022-09-29T00:29:36.916Z,7.67
2022-09-29T00:31:40.033Z,7.30
2022-09-29T00:33:42.140Z,8.00
2022-09-29T00:35:44.057Z,7.20
2022-09-29T00:37:46.007Z,8.57
2022-09-29T00:39:48.043Z,9.00
2022-09-29T00:41:49.995Z,8.50
2022-09-29T00:44:00.992Z,8.60
2022-09-29T00:46:03.060Z,8.03
2022-09-29T00:48:13.553Z,8.20
2022-09-29T00:50:32.623Z,8.33
2022-09-29T00:52:38.327Z,8.37
2022-09-29T00:54:44.777Z,8.50
2022-09-29T00:56:47.349Z,8.87
2022-09-29T00:59:03.624Z,8.20
2022-09-29T01:01:06.741Z,8.60
2022-09-29T01:03:12.171Z,8.30
2022-09-29T01:05:19.078Z,7.93
2022-09-29T01:07:24.652Z,7.47
2022-09-29T01:09:29.926Z,7.70
2022-09-29T01:11:31.999Z,8.57
2022-09-29T01:13:34.727Z,7.80
2022-09-29T01:15:36.751Z,7.60
2022-09-29T01:17:38.871Z,8.73
2022-09-29T01:20:04.855Z,7.90
2022-09-29T01:22:21.367Z,7.40
2022-09-29T01:24:23.266Z,8.83
2022-09-29T01:27:22.011Z,7.13
2022-09-29T01:29:53.150Z,8.20
2022-09-29T01:31:55.131Z,8.73
2022-09-29T01:34:03.133Z,7.67
2022-09-29T01:36:24.588Z,7.73
2022-09-29T01:38:26.463Z,8.67
2022-09-29T01:40:54.801Z,9.30
2022-09-29T01:43:09.992Z,9.40
2022-09-29T01:45:20.403Z,8.83
2022-09-29T01:47:29.590Z,9.00
2022-09-29T01:49:34.574Z,8.83
2022-09-29T01:52:13.862Z,8.70
2022-09-29T01:54:20.431Z,9.00
2022-09-29T01:56:50.570Z,8.10
2022-09-29T01:58:58.409Z,8.20
2022-09-29T02:01:05.187Z,8.40
2022-09-29T02:03:21.372Z,9.57
2022-09-29T02:05:36.480Z,8.40
2022-09-29T02:07:41.431Z,8.10
2022-09-29T02:09:47.548Z,9.00
2022-09-29T02:11:51.635Z,7.20
2022-09-29T02:13:58.028Z,8.03
2022-09-29T02:16:00.848Z,8.30
2022-09-29T02:18:08.209Z,9.20
2022-09-29T02:20:11.715Z,9.20
2022-09-29T02:22:14.646Z,9.10
2022-09-29T02:24:16.722Z,9.30
2022-09-29T02:26:19.404Z,8.37
2022-09-29T02:28:21.462Z,9.10
2022-09-29T02:30:23.447Z,9.40
2022-09-29T02:32:25.743Z,9.93
2022-09-29T02:34:28.542Z,8.67
2022-09-29T02:36:42.320Z,8.23
2022-09-29T02:38:53.348Z,7.80
2022-09-29T02:41:07.902Z,7.53
2022-09-29T02:43:44.503Z,8.10
2022-09-29T02:45:59.678Z,8.20
2022-09-29T02:48:26.563Z,8.30
2022-09-29T02:50:40.506Z,7.73
2022-09-29T02:53:00.047Z,8.53
2022-09-29T02:55:15.824Z,7.57
2022-09-29T02:57:39.260Z,8.67
2022-09-29T03:00:12.044Z,7.80
2022-09-29T03:02:16.456Z,8.00
2022-09-29T03:04:19.679Z,8.63
2022-09-29T03:06:21.675Z,8.10
2022-09-29T03:08:23.656Z,9.27
2022-09-29T03:10:29.852Z,8.00
2022-09-29T03:12:32.304Z,7.70
2022-09-29T03:14:34.214Z,8.27
2022-09-29T03:16:37.110Z,8.60
2022-09-29T03:18:39.106Z,7.70
2022-09-29T03:20:41.075Z,8.20
2022-09-29T03:22:43.130Z,9.03
2022-09-29T03:24:45.511Z,8.40
2022-09-29T03:26:47.483Z,8.20
2022-09-29T03:28:50.640Z,7.80
2022-09-29T03:30:55.354Z,8.20
2022-09-29T03:32:57.263Z,7.80
2022-09-29T03:34:59.250Z,9.00
2022-09-29T03:37:01.577Z,8.00
2022-09-29T03:39:03.625Z,8.27
2022-09-29T03:41:06.457Z,8.30
2022-09-29T03:43:08.440Z,8.13
2022-09-29T03:45:10.768Z,8.40
2022-09-29T03:47:12.738Z,8.77
2022-09-29T03:49:18.265Z,8.00
2022-09-29T03:51:20.215Z,8.30
2022-09-29T03:53:22.193Z,7.23
2022-09-29T03:55:24.176Z,9.13
2022-09-29T03:57:26.167Z,8.40
2022-09-29T03:59:28.355Z,8.47
2022-09-29T04:01:30.407Z,8.70
2022-09-29T04:03:32.351Z,8.00
2022-09-29T04:05:38.825Z,8.30
2022-09-29T04:07:40.790Z,8.57
2022-09-29T04:09:43.155Z,7.60
2022-09-29T04:11:45.070Z,7.90
2022-09-29T04:13:47.691Z,7.77
2022-09-29T04:15:49.749Z,7.73
2022-09-29T04:17:51.730Z,8.40
2022-09-29T04:19:53.626Z,7.70
2022-09-29T04:21:55.593Z,9.60
2022-09-29T04:23:57.563Z,8.43
2022-09-29T04:25:59.587Z,10.57
2022-09-29T04:28:01.728Z,10.93
2022-09-29T04:30:04.607Z,8.63
2022-09-29T04:32:06.697Z,9.27
2022-09-29T04:34:08.628Z,9.30
2022-09-29T04:36:10.623Z,9.90
2022-09-29T04:38:12.660Z,9.37
2022-09-29T04:40:14.709Z,9.73
2022-09-29T04:42:16.694Z,9.90
2022-09-29T04:44:22.179Z,10.50
2022-09-29T04:46:24.196Z,10.23
2022-09-29T04:48:26.219Z,10.07
2022-09-29T04:50:28.359Z,11.00
2022-09-29T04:52:30.410Z,10.13
2022-09-29T04:54:37.672Z,10.17
2022-09-29T04:56:40.143Z,11.40
2022-09-29T04:58:42.051Z,11.03
2022-09-29T05:00:44.141Z,9.73
2022-09-29T05:02:49.603Z,10.37
2022-09-29T05:04:51.814Z,11.20
2022-09-29T05:06:53.751Z,10.37
2022-09-29T05:08:55.730Z,10.53
2022-09-29T05:10:57.917Z,10.80
2022-09-29T05:12:59.863Z,10.20
2022-09-29T05:15:02.030Z,10.70
2022-09-29T05:17:04.043Z,10.60
2022-09-29T05:19:06.070Z,10.90
2022-09-29T05:21:27.760Z,11.43
2022-09-29T05:23:30.789Z,12.07
2022-09-29T05:25:32.980Z,12.20
2022-09-29T05:27:38.785Z,12.03
2022-09-29T05:29:40.844Z,12.00
2022-09-29T05:31:43.246Z,11.90
2022-09-29T05:33:45.426Z,11.80
2022-09-29T05:35:47.508Z,12.67
2022-09-29T05:37:51.698Z,11.97
2022-09-29T05:39:53.698Z,11.27
2022-09-29T05:41:59.505Z,12.47
2022-09-29T05:44:01.806Z,11.87
2022-09-29T05:46:05.333Z,12.43
2022-09-29T05:48:07.323Z,11.90
2022-09-29T05:50:12.632Z,11.90
2022-09-29T05:52:14.588Z,11.40
2022-09-29T05:54:16.580Z,12.33
2022-09-29T05:56:21.058Z,10.87
2022-09-29T05:58:23.102Z,39.43
2022-09-29T06:00:25.314Z,29.13
2022-09-29T06:02:27.354Z,152.67
2022-09-29T06:04:29.374Z,97.77
2022-09-29T06:06:31.453Z,30.90
2022-09-29T06:08:34.075Z,12.83
2022-09-29T06:10:36.033Z,13.40
2022-09-29T06:12:37.963Z,12.50
2022-09-29T06:14:39.905Z,12.67
2022-09-29T06:16:41.987Z,11.43
2022-09-29T06:18:44.269Z,12.10
2022-09-29T06:20:47.641Z,11.70
2022-09-29T06:22:51.559Z,10.53
2022-09-29T06:24:54.762Z,11.17
2022-09-29T06:26:56.691Z,11.50
2022-09-29T06:28:58.755Z,12.50
2022-09-29T06:31:03.237Z,12.03
2022-09-29T06:33:05.178Z,12.13
2022-09-29T06:35:26.214Z,10.53
2022-09-29T06:37:37.375Z,9.80
2022-09-29T06:39:39.371Z,10.43
2022-09-29T06:41:41.715Z,11.70
2022-09-29T06:43:43.851Z,10.73
2022-09-29T06:45:45.879Z,12.20
2022-09-29T06:47:47.878Z,11.97
2022-09-29T06:49:57.598Z,12.30
2022-09-29T06:52:20.258Z,12.20
2022-09-29T06:54:26.325Z,11.50
2022-09-29T06:56:28.263Z,14.60
2022-09-29T06:58:30.311Z,11.93
2022-09-29T07:00:33.607Z,15.17
2022-09-29T07:02:35.767Z,12.90
2022-09-29T07:04:37.961Z,12.57
2022-09-29T07:06:39.923Z,13.60
2022-09-29T07:08:41.873Z,12.73
2022-09-29T07:10:43.844Z,11.10
2022-09-29T07:12:47.022Z,12.07
2022-09-29T07:14:48.970Z,12.33
2022-09-29T07:16:51.716Z,11.10
2022-09-29T07:18:53.735Z,11.30
2022-09-29T07:20:56.834Z,12.30
2022-09-29T07:22:59.209Z,11.10
2022-09-29T07:25:02.214Z,11.87
2022-09-29T07:27:04.433Z,12.20
2022-09-29T07:29:06.391Z,11.20
2022-09-29T07:31:15.455Z,12.00
2022-09-29T07:33:20.306Z,17.70
2022-09-29T07:35:25.086Z,12.87
2022-09-29T07:37:27.720Z,12.07
2022-09-29T07:39:29.741Z,9.50
2022-09-29T07:41:31.716Z,11.00
2022-09-29T07:43:33.667Z,9.60
2022-09-29T07:45:35.733Z,8.23
2022-09-29T07:47:37.806Z,8.40
2022-09-29T07:49:43.373Z,7.70
2022-09-29T07:51:45.625Z,10.57
2022-09-29T07:53:48.187Z,8.30
2022-09-29T07:55:50.927Z,9.27
2022-09-29T07:57:52.993Z,7.03
2022-09-29T07:59:55.107Z,6.50
2022-09-29T08:01:57.142Z,6.27
2022-09-29T08:03:59.339Z,10.00
2022-09-29T08:06:04.289Z,5.70
2022-09-29T08:08:06.469Z,6.20
2022-09-29T08:10:16.991Z,7.13
2022-09-29T08:12:19.912Z,5.20
2022-09-29T08:14:22.820Z,5.37
2022-09-29T08:16:25.197Z,5.73
2022-09-29T08:18:31.552Z,5.53
2022-09-29T08:20:35.828Z,6.17
2022-09-29T08:22:37.832Z,5.40
2022-09-29T08:24:40.621Z,5.87
2022-09-29T08:26:44.419Z,4.80
2022-09-29T08:28:48.807Z,4.97
2022-09-29T08:30:54.495Z,4.70
2022-09-29T08:32:56.891Z,4.37
2022-09-29T08:34:58.809Z,5.87
2022-09-29T08:37:00.801Z,4.40
2022-09-29T08:39:03.056Z,4.40
2022-09-29T08:41:06.149Z,4.67
2022-09-29T08:43:24.484Z,3.93
2022-09-29T08:45:53.362Z,4.40
2022-09-29T08:48:18.202Z,3.90
2022-09-29T08:50:42.948Z,3.90
2022-09-29T08:52:52.630Z,3.80
2022-09-29T08:55:18.579Z,3.70
2022-09-29T08:57:22.908Z,3.87
2022-09-29T08:59:27.541Z,3.80
2022-09-29T09:01:57.865Z,4.20
2022-09-29T09:04:40.669Z,2.60
2022-09-29T09:07:07.794Z,2.60
2022-09-29T09:09:26.251Z,3.23
2022-09-29T09:11:34.223Z,3.03
2022-09-29T09:13:55.642Z,3.20
2022-09-29T09:16:26.605Z,2.40
2022-09-29T09:18:31.301Z,3.00
2022-09-29T09:20:36.747Z,3.43
2022-09-29T09:22:59.848Z,3.60
2022-09-29T09:25:07.854Z,2.73
2022-09-29T09:27:15.550Z,3.00
2022-09-29T09:29:31.570Z,2.40
2022-09-29T09:31:44.871Z,2.27
2022-09-29T09:34:03.834Z,2.00
2022-09-29T09:36:33.164Z,3.00
2022-09-29T09:38:57.989Z,1.93
2022-09-29T09:41:00.757Z,1.77
2022-09-29T09:43:04.079Z,1.60
2022-09-29T09:45:29.359Z,1.27
2022-09-29T09:47:38.557Z,1.40
2022-09-29T09:49:43.621Z,1.43
2022-09-29T09:51:58.676Z,1.40
2022-09-29T09:54:05.518Z,1.30
2022-09-29T09:56:07.533Z,1.40
2022-09-29T09:58:28.349Z,2.10
2022-09-29T10:00:39.317Z,1.63
2022-09-29T10:02:49.863Z,1.50
2022-09-29T10:04:52.985Z,1.67
2022-09-29T10:06:55.903Z,2.50
2022-09-29T10:08:57.947Z,1.97
2022-09-29T10:11:00.133Z,1.70
2022-09-29T10:13:03.489Z,1.80
2022-09-29T10:15:15.569Z,2.20
2022-09-29T10:17:20.441Z,1.93
2022-09-29T10:19:24.049Z,2.17
2022-09-29T10:21:26.263Z,2.40
2022-09-29T10:23:35.626Z,2.10
2022-09-29T10:25:37.694Z,3.40
2022-09-29T10:27:44.556Z,1.60
2022-09-29T10:29:52.907Z,1.50
2022-09-29T10:32:10.069Z,1.33
2022-09-29T10:34:13.681Z,1.23
2022-09-29T10:36:20.297Z,1.33
2022-09-29T10:38:26.414Z,1.30
2022-09-29T10:40:28.412Z,1.80
2022-09-29T10:42:38.151Z,2.30
2022-09-29T10:44:40.088Z,2.30
2022-09-29T10:46:52.063Z,3.00
2022-09-29T10:49:12.741Z,2.80
2022-09-29T10:51:20.224Z,2.07
2022-09-29T10:53:32.095Z,2.10
2022-09-29T10:55:35.758Z,1.93
2022-09-29T10:57:39.992Z,2.20
2022-09-29T10:59:53.156Z,2.00
2022-09-29T11:01:57.758Z,2.30
2022-09-29T11:04:06.308Z,1.90
2022-09-29T11:06:12.031Z,2.50
2022-09-29T11:08:14.213Z,2.40
2022-09-29T11:10:28.401Z,2.30
2022-09-29T11:12:39.444Z,2.40
2022-09-29T11:14:42.844Z,2.10
2022-09-29T11:16:54.034Z,2.47
2022-09-29T11:19:01.518Z,2.60
2022-09-29T11:21:35.728Z,2.67
2022-09-29T11:23:45.645Z,3.10
2022-09-29T11:26:07.892Z,2.50
2022-09-29T11:28:34.206Z,2.80
2022-09-29T11:30:57.657Z,3.30
2022-09-29T11:33:28.979Z,3.10
2022-09-29T11:35:42.999Z,2.90
2022-09-29T11:37:58.022Z,3.33
2022-09-29T11:40:25.107Z,3.30
2022-09-29T11:42:49.190Z,2.67
2022-09-29T11:45:03.602Z,3.00
2022-09-29T11:47:17.590Z,2.93
2022-09-29T11:49:25.630Z,3.03
2022-09-29T11:51:56.142Z,3.00
2022-09-29T11:54:14.621Z,3.00
2022-09-29T11:56:17.331Z,2.70
2022-09-29T11:58:48.536Z,2.97
2022-09-29T12:01:14.031Z,2.80
2022-09-29T12:03:26.432Z,2.83
2022-09-29T12:05:53.995Z,2.50
2022-09-29T12:08:13.902Z,2.73
2022-09-29T12:10:26.555Z,2.53
2022-09-29T12:12:34.912Z,2.73
2022-09-29T12:14:43.032Z,2.80
2022-09-29T12:16:53.231Z,2.47
2022-09-29T12:19:13.980Z,2.43
2022-09-29T12:23:30.947Z,2.33
2022-09-29T12:25:36.865Z,2.77
2022-09-29T12:27:40.942Z,2.40
2022-09-29T12:30:23.307Z,2.93
2022-09-29T12:32:51.799Z,1.83
2022-09-29T12:34:58.327Z,1.93
2022-09-29T12:37:19.572Z,2.10
2022-09-29T12:39:28.367Z,8.40
2022-09-29T12:41:34.427Z,2.20
2022-09-29T12:43:48.561Z,2.40
2022-09-29T12:46:02.211Z,2.33
2022-09-29T12:48:28.631Z,2.20
2022-09-29T12:50:41.411Z,2.00
2022-09-29T12:52:58.228Z,2.03
2022-09-29T12:55:05.171Z,4.17
2022-09-29T12:57:16.752Z,16.07
2022-09-29T12:59:34.149Z,5.33
2022-09-29T13:01:37.613Z,2.23
2022-09-29T13:04:05.847Z,2.97
2022-09-29T13:06:32.168Z,16.80
2022-09-29T13:08:49.600Z,3.57
2022-09-29T13:11:45.689Z,4.90
2022-09-29T13:14:24.978Z,4.90
2022-09-29T13:16:41.339Z,2.40
2022-09-29T13:19:20.971Z,3.30
2022-09-29T13:21:48.502Z,3.47
2022-09-29T13:24:29.347Z,1.87
2022-09-29T13:26:40.378Z,2.40
2022-09-29T13:28:48.599Z,2.07
2022-09-29T13:30:51.024Z,2.30
2022-09-29T13:32:57.603Z,1.93
2022-09-29T13:35:01.101Z,1.87
2022-09-29T13:37:14.388Z,1.90
2022-09-29T13:39:27.177Z,1.50
2022-09-29T13:41:30.053Z,1.60
2022-09-29T13:43:50.342Z,1.40
2022-09-29T13:45:52.431Z,1.40
2022-09-29T13:48:00.090Z,1.70
2022-09-29T13:50:41.319Z,2.30
2022-09-29T13:52:48.664Z,2.10
2022-09-29T13:54:50.693Z,1.80
2022-09-29T13:57:04.365Z,1.50
2022-09-29T13:59:15.507Z,1.80
2022-09-29T14:01:33.850Z,2.20
2022-09-29T14:03:38.365Z,1.70
2022-09-29T14:05:45.595Z,2.20
2022-09-29T14:07:50.252Z,2.10
2022-09-29T14:09:52.425Z,1.90
2022-09-29T14:11:55.670Z,2.00
2022-09-29T14:14:05.463Z,1.87
2022-09-29T14:16:19.553Z,1.60
2022-09-29T14:18:31.859Z,2.10
2022-09-29T14:20:35.165Z,1.97
2022-09-29T14:22:37.023Z,2.43
2022-09-29T14:24:42.213Z,1.90
2022-09-29T14:26:50.935Z,2.23
2022-09-29T14:28:53.422Z,2.33
2022-09-29T14:30:57.814Z,2.30
2022-09-29T14:33:10.762Z,2.40
2022-09-29T14:35:33.337Z,2.43
2022-09-29T14:37:36.484Z,2.37
2022-09-29T14:39:39.676Z,2.23
2022-09-29T14:41:44.155Z,2.10
2022-09-29T14:44:08.114Z,2.20
2022-09-29T14:46:53.301Z,2.70
2022-09-29T14:49:40.027Z,2.00
2022-09-29T14:52:00.199Z,2.20
2022-09-29T14:54:09.448Z,2.00
2022-09-29T14:56:19.913Z,2.20
2022-09-29T14:58:43.674Z,2.07
2022-09-29T15:00:51.562Z,2.30
2022-09-29T15:03:10.513Z,2.37
2022-09-29T15:05:31.255Z,2.50
2022-09-29T15:07:41.134Z,2.20
2022-09-29T15:09:49.553Z,2.30
2022-09-29T15:11:54.405Z,2.10
2022-09-29T15:13:57.378Z,1.40
2022-09-29T15:16:12.910Z,1.53
2022-09-29T15:18:39.152Z,1.60
2022-09-29T15:20:55.827Z,1.43
2022-09-29T15:23:31.063Z,2.00
2022-09-29T15:25:35.761Z,1.67
2022-09-29T15:27:39.690Z,1.73
2022-09-29T15:29:46.787Z,1.50
2022-09-29T15:31:49.671Z,1.20
2022-09-29T15:33:51.837Z,1.40
2022-09-29T15:36:02.147Z,1.23
2022-09-29T15:38:10.252Z,1.70
2022-09-29T15:40:16.530Z,1.50
2022-09-29T15:42:21.837Z,1.80
2022-09-29T15:44:28.539Z,1.60
2022-09-29T15:46:37.118Z,1.47
2022-09-29T15:48:39.167Z,1.40
2022-09-29T15:50:43.925Z,1.53
2022-09-29T15:52:46.621Z,1.70
2022-09-29T15:54:49.110Z,1.63
2022-09-29T15:57:09.612Z,1.97
2022-09-29T15:59:18.530Z,1.80
2022-09-29T16:01:21.038Z,1.60
2022-09-29T16:03:24.448Z,1.50
2022-09-29T16:05:26.510Z,2.33
2022-09-29T16:07:31.382Z,1.40
2022-09-29T16:09:36.249Z,1.83
2022-09-29T16:11:41.669Z,2.20
2022-09-29T16:13:49.754Z,2.20
2022-09-29T16:15:52.659Z,2.17
2022-09-29T16:17:54.793Z,2.03
2022-09-29T16:19:59.367Z,2.40
2022-09-29T16:22:06.424Z,5.60
2022-09-29T16:24:13.729Z,8.30
2022-09-29T16:26:33.372Z,4.60
2022-09-29T16:28:38.166Z,2.70
2022-09-29T16:30:40.213Z,2.70
2022-09-29T16:32:43.085Z,2.50
2022-09-29T16:34:45.186Z,3.17
2022-09-29T16:36:53.230Z,2.90
2022-09-29T16:38:55.494Z,3.07
2022-09-29T16:40:57.537Z,3.20
2022-09-29T16:43:01.763Z,3.23
2022-09-29T16:45:04.197Z,4.27
2022-09-29T16:47:19.173Z,4.53
2022-09-29T16:49:34.239Z,3.80
2022-09-29T16:51:43.262Z,3.50
2022-09-29T16:53:45.922Z,3.53
2022-09-29T16:55:58.818Z,3.70
2022-09-29T16:58:12.335Z,3.63
2022-09-29T17:00:14.620Z,3.50
2022-09-29T17:02:16.711Z,3.50
2022-09-29T17:04:18.668Z,4.43
2022-09-29T17:06:20.687Z,4.27
2022-09-29T17:08:27.201Z,4.30
2022-09-29T17:10:29.529Z,4.67
2022-09-29T17:12:31.480Z,5.30
2022-09-29T17:14:33.444Z,5.03
2022-09-29T17:16:35.462Z,5.40
2022-09-29T17:18:37.563Z,7.00
2022-09-29T17:20:40.099Z,7.57
2022-09-29T17:22:42.209Z,7.67
2022-09-29T17:24:44.136Z,7.20
2022-09-29T17:27:04.922Z,8.13
2022-09-29T17:29:06.879Z,7.23
2022-09-29T17:31:11.284Z,7.37
2022-09-29T17:33:16.072Z,7.40
2022-09-29T17:35:19.800Z,7.40
2022-09-29T17:37:21.894Z,7.30
2022-09-29T17:39:23.962Z,7.43
2022-09-29T17:41:25.933Z,7.30
2022-09-29T17:43:31.403Z,7.60
2022-09-29T17:45:39.354Z,6.33
2022-09-29T17:47:43.713Z,7.30
2022-09-29T17:49:50.240Z,6.93
2022-09-29T17:51:52.289Z,6.43
2022-09-29T17:53:54.810Z,6.50
2022-09-29T17:55:57.526Z,6.37
2022-09-29T17:58:00.219Z,6.20
2022-09-29T18:00:03.041Z,5.83
2022-09-29T18:02:13.149Z,6.67
2022-09-29T18:04:15.168Z,7.90
2022-09-29T18:06:21.911Z,9.30
2022-09-29T18:08:26.620Z,7.87
2022-09-29T18:10:31.890Z,8.30
2022-09-29T18:12:33.868Z,9.60
2022-09-29T18:14:36.929Z,10.47
2022-09-29T18:16:38.918Z,10.43
2022-09-29T18:18:41.123Z,10.10
2022-09-29T18:20:45.564Z,9.33
2022-09-29T18:22:48.126Z,10.20
2022-09-29T18:24:50.297Z,8.70
2022-09-29T18:26:52.262Z,8.90
2022-09-29T18:28:55.139Z,8.50
2022-09-29T18:31:11.545Z,8.63
2022-09-29T18:33:16.498Z,7.60
2022-09-29T18:35:24.544Z,7.80
2022-09-29T18:37:26.547Z,7.67
2022-09-29T18:39:28.522Z,8.63
2022-09-29T18:41:30.539Z,7.67
2022-09-29T18:43:32.523Z,8.30
2022-09-29T18:45:36.581Z,7.17
2022-09-29T18:47:41.254Z,7.70
2022-09-29T18:49:43.541Z,6.47
2022-09-29T18:51:45.727Z,6.60
2022-09-29T18:53:47.679Z,5.40
2022-09-29T18:55:50.357Z,5.90
2022-09-29T18:57:53.767Z,6.60
2022-09-29T18:59:55.818Z,6.43
2022-09-29T19:01:57.864Z,6.30
2022-09-29T19:03:59.919Z,6.80
2022-09-29T19:06:02.434Z,6.17
2022-09-29T19:08:05.908Z,7.10
2022-09-29T19:10:08.437Z,7.57
2022-09-29T19:12:11.213Z,6.80
2022-09-29T19:14:13.752Z,6.43
2022-09-29T19:16:15.936Z,6.50
2022-09-29T19:18:23.528Z,6.57
2022-09-29T19:20:27.595Z,7.43
2022-09-29T19:22:38.271Z,7.10
2022-09-29T19:24:40.640Z,6.70
2022-09-29T19:26:42.654Z,6.20
2022-09-29T19:28:44.873Z,6.57
2022-09-29T19:30:47.476Z,7.47
2022-09-29T19:32:49.771Z,8.20
2022-09-29T19:34:53.826Z,7.33
2022-09-29T19:36:55.761Z,6.63
2022-09-29T19:38:57.824Z,7.93
2022-09-29T19:40:59.897Z,7.33
2022-09-29T19:43:05.021Z,7.00
2022-09-29T19:45:08.059Z,7.20
2022-09-29T19:47:11.085Z,7.17
2022-09-29T19:49:13.207Z,6.70
2022-09-29T19:51:35.448Z,7.03
2022-09-29T19:53:37.528Z,7.93
2022-09-29T19:55:40.342Z,6.47
2022-09-29T19:57:42.547Z,6.93
2022-09-29T19:59:44.576Z,6.53
2022-09-29T20:01:49.867Z,7.67
2022-09-29T20:03:52.050Z,6.87
2022-09-29T20:05:59.734Z,7.03
2022-09-29T20:08:02.558Z,6.63
2022-09-29T20:10:05.058Z,6.90
2022-09-29T20:12:07.184Z,7.00
2022-09-29T20:14:11.630Z,6.30
2022-09-29T20:16:13.739Z,8.30
2022-09-29T20:18:15.852Z,7.40
2022-09-29T20:20:18.530Z,8.60
2022-09-29T20:22:20.512Z,9.10
2022-09-29T20:24:25.213Z,8.70
2022-09-29T20:26:28.244Z,10.23
2022-09-29T20:28:31.646Z,8.40
2022-09-29T20:30:33.789Z,8.90
2022-09-29T20:32:35.799Z,8.80
2022-09-29T20:34:37.764Z,9.87
2022-09-29T20:36:39.747Z,9.63
2022-09-29T20:38:43.955Z,9.27
2022-09-29T20:40:47.617Z,9.33
2022-09-29T20:42:49.970Z,8.93
2022-09-29T20:44:56.296Z,10.00
2022-09-29T20:46:59.174Z,9.70
2022-09-29T20:49:03.145Z,9.30
2022-09-29T20:51:06.981Z,10.47
2022-09-29T20:53:08.991Z,10.53
2022-09-29T20:55:12.075Z,10.57
2022-09-29T20:57:16.587Z,10.10
2022-09-29T20:59:20.704Z,8.80
2022-09-29T21:01:24.906Z,9.90
2022-09-29T21:03:26.968Z,8.80
2022-09-29T21:05:29.042Z,10.00
2022-09-29T21:07:36.885Z,9.83
2022-09-29T21:09:38.874Z,9.60
2022-09-29T21:11:43.557Z,9.07
2022-09-29T21:13:53.006Z,9.30
2022-09-29T21:15:57.094Z,8.23
2022-09-29T21:17:59.259Z,9.23
2022-09-29T21:20:07.427Z,8.47
2022-09-29T21:22:35.564Z,8.27
2022-09-29T21:25:16.034Z,8.50
2022-09-29T21:27:18.556Z,8.90
2022-09-29T21:29:32.659Z,9.10
2022-09-29T21:31:44.214Z,8.40
2022-09-29T21:33:50.279Z,9.30
2022-09-29T21:36:17.489Z,9.10
2022-09-29T21:38:22.520Z,8.63
2022-09-29T21:40:47.611Z,8.33
2022-09-29T21:43:28.055Z,9.40
2022-09-29T21:45:36.086Z,10.60
2022-09-29T21:47:56.715Z,8.70
2022-09-29T21:49:58.738Z,8.80
2022-09-29T21:52:36.279Z,8.70
2022-09-29T21:54:41.312Z,10.03
2022-09-29T21:56:50.168Z,8.47
2022-09-29T21:58:54.069Z,9.50
2022-09-29T22:01:02.374Z,9.13
2022-09-29T22:03:16.029Z,8.40
2022-09-29T22:05:27.439Z,8.93
2022-09-29T22:07:35.415Z,9.90
2022-09-29T22:09:37.444Z,7.97
2022-09-29T22:11:42.480Z,8.00
2022-09-29T22:14:02.419Z,9.70
2022-09-29T22:16:29.226Z,8.57
2022-09-29T22:18:41.882Z,10.10
2022-09-29T22:20:46.219Z,9.03
2022-09-29T22:22:53.926Z,9.20
2022-09-29T22:24:56.512Z,9.20
2022-09-29T22:27:01.229Z,9.87
2022-09-29T22:29:10.335Z,9.40
2022-09-29T22:31:23.521Z,8.97
2022-09-29T22:33:57.295Z,9.40
2022-09-29T22:36:09.048Z,8.80
2022-09-29T22:38:32.070Z,9.20
2022-09-29T22:40:39.251Z,9.83
2022-09-29T22:43:00.168Z,8.63
2022-09-29T22:45:02.133Z,7.63
2022-09-29T22:47:15.946Z,7.87
2022-09-29T22:49:21.784Z,8.07
2022-09-29T22:51:34.454Z,8.60
2022-09-29T22:53:42.131Z,7.10
2022-09-29T22:56:12.914Z,7.90
2022-09-29T22:58:23.794Z,8.77
2022-09-29T23:01:09.311Z,8.00
2022-09-29T23:03:13.674Z,9.60
2022-09-29T23:05:24.352Z,8.10
2022-09-29T23:07:28.924Z,7.80
2022-09-29T23:09:57.150Z,8.47
2022-09-29T23:12:02.215Z,8.13
2022-09-29T23:14:04.197Z,8.07
2022-09-29T23:16:12.027Z,8.03
2022-09-29T23:18:18.585Z,8.63
2022-09-29T23:20:22.962Z,8.60
2022-09-29T23:22:27.752Z,8.90
2022-09-29T23:24:38.669Z,8.20
2022-09-29T23:26:49.591Z,7.33
2022-09-29T23:29:12.343Z,7.47
2022-09-29T23:31:35.075Z,8.13
2022-09-29T23:34:12.089Z,8.40
2022-09-29T23:36:35.111Z,9.00
2022-09-29T23:39:10.779Z,7.70
2022-09-29T23:41:32.314Z,7.93
2022-09-29T23:43:55.567Z,8.20
2022-09-29T23:45:57.916Z,8.07
2022-09-29T23:47:59.860Z,8.53
2022-09-29T23:50:02.594Z,7.90
2022-09-29T23:52:04.639Z,8.87
2022-09-29T23:54:07.625Z,8.47
2022-09-29T23:56:09.536Z,8.97
2022-09-29T23:58:11.931Z,9.00
